Arnold, Missouri
Current Conditions -  °F | °C
As of 2:53 AM on Sunday 23 Nov 2014 (Local Time) from KCPS Reporting Station
Broken Clouds Broken Clouds  
Wind Chill: 11°   Ceiling: 10000
Heat Index: 11°   Visibility: 10mi
Dew Point:   Wind: 9mph
Humidity: 71%   Direction: 160°SSE
Pressure: 29.8"   Gusts: NA
Location:  38.42°N, 90.37°W
Report Text: KCPS 230853Z AUTO 16008KT 10SM BKN100 11/06 A2980 RMK AO2 SLP092 T01110061 56022 TSNO
Loading
Personal Weather Stations






























Interactive Weather Map New forecast layout! Learn more

10-Day Weather Forecast

Advertisements
Track Severe Weather on mobile